Condat sur Vézère

LFDZ · Nouvelle-Aquitaine, Francia

1 de octubre de 2022

Hora Código Tiempo Temp. Visibilidad Cielo nuboso Viento METAR/SPECI
22:30
L
17 °C 6 km 400 ft 240° 240° 3 kt METAR LFSL 012030Z AUTO 24003KT 160V300 6000 -DZ BKN004 OVC009 17/16 Q1026
22:00
L
17 °C 4,3 km 400 ft 260° 260° 4 kt METAR LFSL 012000Z AUTO 26004KT 190V310 4300 -DZ BR OVC004 17/16 Q1026 TEMPO 2000 DZRA
21:30
L
17 °C 4,7 km 400 ft Var Var 3 kt METAR LFSL 011930Z AUTO VRB03KT 4700 BR OVC004 17/16 Q1025 TEMPO 2000 DZRA
21:00
L
17 °C 7 km 400 ft 240° 240° 3 kt METAR LFSL 011900Z AUTO 24003KT 180V310 7000 OVC004 17/16 Q1025 TEMPO 2000 DZRA
20:30
I
17 °C 7 km 500 ft Var Var 4 kt METAR LFSL 011830Z AUTO VRB04KT 7000 OVC005 17/17 Q1025 TEMPO 2000 DZRA
20:00
I
17 °C 6 km 500 ft 250° 250° 4 kt METAR LFSL 011800Z AUTO 25004KT 160V320 6000 OVC005 17/17 Q1024 TEMPO 2000 DZRA
19:30
I
17 °C 5 km 500 ft 240° 240° 5 kt METAR LFSL 011730Z AUTO 24005KT 180V300 5000 -DZ BR OVC005/// //////TCU 17/17 Q1024 TEMPO 2000 DZRA OVC004
19:00
I
17 °C 8 km 600 ft 260° 260° 5 kt METAR LFSL 011700Z AUTO 26005KT 180V310 8000 OVC006 17/16 Q1024 TEMPO 2000 DZRA OVC004
18:30
I
17 °C 3,2 km 600 ft 250° 250° 5 kt METAR LFSL 011630Z AUTO 25005KT 190V310 9000 3200 -DZ OVC006 17/17 Q1023 TEMPO 2000 DZRA OVC004
18:00
I
17 °C 8 km 500 ft 250° 250° 5 kt METAR LFSL 011600Z AUTO 25005KT 200V310 8000 -DZ OVC005 17/17 Q1023 TEMPO 2000 DZRA
17:30
I
17 °C 3,7 km 500 ft 250° 250° 6 kt METAR LFSL 011530Z AUTO 25006KT 200V320 3700 DZ BR OVC005 17/17 Q1023 TEMPO 2000 DZRA
17:00
I
17 °C 10 km+ 600 ft 240° 240° 5 kt METAR LFSL 011500Z AUTO 24005KT 160V300 9999 -RADZ OVC006 17/17 Q1023 TEMPO 2000 DZRA OVC004
16:30
I
17 °C 7 km 600 ft 240° 240° 6 kt METAR LFSL 011430Z AUTO 24006KT 140V310 7000 OVC006 17/16 Q1023 TEMPO 2000 DZRA OVC004
16:00
I
17 °C 5 km 500 ft 240° 240° 6 kt METAR LFSL 011400Z AUTO 24006KT 160V310 5000 -DZ BR OVC005 17/16 Q1022 TEMPO 2000 DZRA
15:30
I
17 °C 2,4 km 500 ft 230° 230° 4 kt METAR LFSL 011330Z AUTO 23004KT 170V300 2400 -RA BR OVC005 17/16 Q1022 TEMPO DZRA
15:00
I
17 °C 10 km+ 600 ft Var Var 4 kt METAR LFSL 011300Z AUTO VRB04KT 9999 OVC006 17/16 Q1022 TEMPO 2000 DZRA OVC004
14:30
I
17 °C 9 km 500 ft 240° 240° 5 kt METAR LFSL 011230Z AUTO 24005KT 180V300 9000 OVC005 17/16 Q1022 TEMPO 2000 DZRA
14:00
I
16 °C 4,5 km 500 ft 230° 230° 6 kt METAR LFSL 011200Z AUTO 23006KT 180V290 4500 DZ BR OVC005 16/15 Q1022 TEMPO 2000 DZRA
13:30
L
15 °C 2,6 km 400 ft 230° 230° 5 kt METAR LFSL 011130Z AUTO 23005KT 170V310 2600 -DZ BR OVC004 15/15 Q1022 TEMPO DZRA
13:00
L
15 °C 5 km 400 ft 210° 210° 7 kt METAR LFSL 011100Z AUTO 21007KT 140V290 5000 BR OVC004 15/14 Q1021 TEMPO 2000 DZRA
12:30
L
14 °C 5 km 400 ft 210° 210° 5 kt METAR LFSL 011030Z AUTO 21005KT 150V310 5000 BR OVC004 14/14 Q1021 TEMPO 2000 DZRA
12:00
L
14 °C 10 km+ 400 ft 210° 210° 6 kt METAR LFSL 011000Z AUTO 21006KT 150V290 9999 -DZ OVC004/// //////TCU 14/13 Q1021 TEMPO 2000 DZRA OVC004
11:30
L
13 °C 6 km 300 ft 200° 200° 5 kt METAR LFSL 010930Z AUTO 20005KT 150V260 6000 OVC003/// //////TCU 13/13 Q1021 TEMPO 2000 DZRA OVC004
11:00
L
13 °C 3,3 km 300 ft 190° 190° 5 kt METAR LFSL 010900Z AUTO 19005KT 150V250 3300 DZ BR OVC003 13/12 Q1021 TEMPO 2000 DZRA
10:30
L
12 °C 3,3 km 300 ft 190° 190° 6 kt METAR LFSL 010830Z AUTO 19006KT 130V240 3300 -DZ BR OVC003 12/12 Q1021 TEMPO 2000 DZRA
10:00
L
12 °C 2,6 km 300 ft 170° 170° 4 kt METAR LFSL 010800Z AUTO 17004KT 130V250 2600 -RADZ BR OVC003 12/12 Q1021 TEMPO DZRA
09:30
L
12 °C 3,9 km 200 ft 170° 170° 5 kt METAR LFSL 010730Z AUTO 17005KT 130V200 3900 -DZ BR OVC002 12/11 Q1020 TEMPO 2000 DZRA
09:00
L
11 °C 2,9 km 300 ft 160° 160° 5 kt METAR LFSL 010700Z AUTO 16005KT 130V200 2900 DZ BR OVC003 11/11 Q1020 TEMPO DZRA
08:30
L
11 °C 3,3 km 300 ft 160° 160° 5 kt METAR LFSL 010630Z AUTO 16005KT 130V200 3300 -DZ BR OVC003 11/10 Q1020 TEMPO 2000 DZRA
08:00
L
11 °C 3,4 km 300 ft 160° 160° 5 kt METAR LFSL 010600Z AUTO 16005KT 130V190 3400 -RA BR BKN003 OVC007 11/10 Q1020 TEMPO 2000 DZRA
07:30
I
10 °C 6 km 700 ft 150° 150° 4 kt METAR LFSL 010530Z AUTO 15004KT 120V180 6000 -RA OVC007 10/10 Q1019 TEMPO 2000 DZRA OVC004
07:00
I
10 °C 8 km 900 ft 140° 140° 3 kt METAR LFSL 010500Z AUTO 14003KT 8000 -DZ BKN009 BKN013 BKN032 10/09 Q1019 TEMPO 1500 DZRA OVC004
06:30
M
10 °C 10 km+ 1.100 ft 110° 110° 3 kt METAR LFSL 010430Z AUTO 11003KT 9999 BKN011 OVC016 10/09 Q1020 TEMPO 1500 DZRA SCT010 OVC040
06:00
V
10 °C 10 km+ 5.200 ft Var Var 2 kt METAR LFSL 010400Z AUTO VRB02KT 9999 FEW017 SCT043 OVC052 10/09 Q1019 NOSIG
05:30
V
9 °C 10 km+ 5.400 ft Var Var 3 kt METAR LFSL 010330Z AUTO VRB03KT 9999 FEW027 OVC054 09/08 Q1019 NOSIG
05:00
M
9 °C 10 km+ 2.900 ft 130° 130° 4 kt METAR LFSL 010300Z AUTO 13004KT 090V160 9999 -RA OVC029/// //////TCU 09/08 Q1019
04:30
V
9 °C 10 km+ 3.300 ft Var Var 3 kt METAR LFSL 010230Z AUTO VRB03KT 9999 -RA BKN033/// BKN076/// BKN110/// //////TCU 09/08 Q1019
04:00
V
9 °C 10 km+ 10.000 ft 130° 130° 3 kt METAR LFSL 010200Z AUTO 13003KT 9999 -RA FEW035 BKN100 09/08 Q1019
03:30
V
9 °C 10 km+ 4.000 ft 120° 120° 3 kt METAR LFSL 010130Z AUTO 12003KT 090V170 9999 -RA BKN040/// //////TCU 09/08 Q1019
03:00
V
9 °C 10 km+ 4.300 ft 120° 120° 3 kt METAR LFSL 010100Z AUTO 12003KT 9999 -RA BKN043/// OVC049/// //////TCU 09/08 Q1019
02:30
V
9 °C 10 km+ - 120° 120° 3 kt METAR LFSL 010030Z AUTO 12003KT CAVOK 09/07 Q1019
02:00
V
9 °C 10 km+ - 100° 100° 3 kt METAR LFSL 010000Z AUTO 10003KT CAVOK 09/07 Q1019
01:30
V
9 °C 10 km+ - 120° 120° 4 kt METAR LFSL 302330Z AUTO 12004KT CAVOK 09/07 Q1019
01:00
V
9 °C 10 km+ - Var 000° 0 kt METAR LFSL 302300Z AUTO 00000KT CAVOK 09/07 Q1019
00:30
V
9 °C 10 km+ - Var Var 2 kt METAR LFSL 302230Z AUTO VRB02KT CAVOK 09/07 Q1019
00:00
V
8 °C 10 km+ - Var Var 2 kt METAR LFSL 302200Z AUTO VRB02KT CAVOK 08/08 Q1018

30 de septiembre de 2022

Hora Código Tiempo Temp. Visibilidad Cielo nuboso Viento METAR/SPECI
23:30
V
7 °C 10 km+ - Var 000° 0 kt METAR LFSL 302130Z AUTO 00000KT CAVOK 07/06 Q1018
23:00
V
7 °C 10 km+ - Var 000° 0 kt METAR LFSL 302100Z AUTO 00000KT CAVOK 07/06 Q1018
22:30
V
8 °C 10 km+ - Var 000° 0 kt METAR LFSL 302030Z AUTO 00000KT CAVOK 08/06 Q1018 NOSIG
22:00
V
8 °C 10 km+ - Var 000° 0 kt METAR LFSL 302000Z AUTO 00000KT CAVOK 08/06 Q1017 NOSIG
21:30
V
8 °C 10 km+ - Var 000° 0 kt METAR LFSL 301930Z AUTO 00000KT CAVOK 08/06 Q1017 NOSIG
21:00
V
9 °C 10 km+ - Var 000° 0 kt METAR LFSL 301900Z AUTO 00000KT CAVOK 09/06 Q1017 NOSIG
20:30
V
11 °C 10 km+ - Var 000° 0 kt METAR LFSL 301830Z AUTO 00000KT CAVOK 11/06 Q1016 NOSIG
20:00
V
13 °C 10 km+ - Var Var 3 kt METAR LFSL 301800Z AUTO VRB03KT CAVOK 13/06 Q1016 NOSIG
19:30
V
15 °C 10 km+ - 280° 280° 5 kt METAR LFSL 301730Z AUTO 28005KT 240V310 CAVOK 15/05 Q1016 NOSIG
19:00
V
15 °C 10 km+ - Var Var 5 kt METAR LFSL 301700Z AUTO VRB05KT CAVOK 15/07 Q1016 NOSIG
18:30
V
15 °C 10 km+ - 280° 280° 4 kt METAR LFSL 301630Z AUTO 28004KT 220V310 CAVOK 15/07 Q1016 NOSIG
18:00
V
16 °C 10 km+ 6.400 ft 290° 290° 8 kt METAR LFSL 301600Z AUTO 29008KT 9999 FEW047 BKN064 16/07 Q1015 NOSIG
17:30
V
17 °C 10 km+ 6.400 ft 270° 270° 4 kt METAR LFSL 301530Z AUTO 27004KT 200V340 9999 FEW046 BKN064 17/07 Q1015 NOSIG
17:00
V
16 °C 10 km+ 5.600 ft 330° 330° 5 kt METAR LFSL 301500Z AUTO 33005KT 9999 SCT047 BKN056 16/06 Q1014 NOSIG
16:30
V
16 °C 10 km+ - 320° 320° 4 kt METAR LFSL 301430Z AUTO 32004KT 280V010 CAVOK 16/06 Q1014 NOSIG
16:00
V
17 °C 10 km+ 6.600 ft 290° 290° 6 kt METAR LFSL 301400Z AUTO 29006KT 220V340 9999 FEW048 BKN066 17/06 Q1014 NOSIG
15:30
V
16 °C 10 km+ 6.200 ft 300° 300° 8 kt METAR LFSL 301330Z AUTO 30008KT 200V340 9999 FEW046 BKN062 16/07 Q1014 NOSIG
15:00
V
17 °C 10 km+ 5.800 ft 250° 250° 3 kt METAR LFSL 301300Z AUTO 25003KT 180V320 9999 FEW045 BKN058 17/07 Q1014 NOSIG
14:30
V
16 °C 10 km+ - Var Var 5 kt METAR LFSL 301230Z AUTO VRB05KT 9999 FEW044 SCT052 16/06 Q1014 NOSIG
14:00
V
16 °C 10 km+ - Var Var 6 kt METAR LFSL 301200Z AUTO VRB06KT 9999 FEW034 16/07 Q1014 NOSIG
13:30
V
16 °C 10 km+ - 290° 290° 6 kt METAR LFSL 301130Z AUTO 29006KT 240V320 9999 FEW034 16/07 Q1014 NOSIG
13:00
V
15 °C 10 km+ - 340° 340° 7 kt METAR LFSL 301100Z AUTO 34007KT 300V040 9999 FEW029 15/07 Q1014 NOSIG
12:30
V
15 °C 10 km+ - 300° 300° 5 kt METAR LFSL 301030Z AUTO 30005KT 230V340 9999 FEW021 15/07 Q1014 NOSIG
12:00
V
13 °C 10 km+ - 290° 290° 5 kt METAR LFSL 301000Z AUTO 29005KT 240V320 9999 FEW020 13/08 Q1014 TEMPO BKN008
11:30
V
13 °C 10 km+ - 340° 340° 6 kt METAR LFSL 300930Z AUTO 34006KT 300V030 CAVOK 13/08 Q1014 TEMPO BKN008
11:00
V
12 °C 10 km+ - 360° 360° 4 kt METAR LFSL 300900Z AUTO 36004KT 320V050 CAVOK 12/08 Q1013 TEMPO BKN008
10:30
V
10 °C 10 km+ - 350° 350° 3 kt METAR LFSL 300830Z AUTO 35003KT 310V030 CAVOK 10/08 Q1013 TEMPO BKN008
10:00
V
9 °C 10 km+ 6.600 ft 360° 360° 5 kt METAR LFSL 300800Z AUTO 36005KT 9999 FEW044 BKN066 09/07 Q1013 NOSIG
09:30
V
8 °C 10 km+ 4.500 ft 340° 340° 5 kt METAR LFSL 300730Z AUTO 34005KT 9999 BKN045 BKN054 OVC066 08/08 Q1012 NOSIG
09:00
L
7 °C 10 km+ - Var Var 3 kt METAR LFSL 300700Z AUTO VRB03KT 9999 VV/// 07/07 Q1012 TEMPO 0500 FG BECMG NSC
08:30
L
6 °C 400 m - 310° 310° 2 kt METAR LFSL 300630Z AUTO 31002KT 0400 R29/1000U FG VV/// 06/06 Q1011 BECMG CAVOK
08:00
L
6 °C 2,4 km - 290° 290° 4 kt METAR LFSL 300600Z AUTO 29004KT 9999 2400 VV/// 06/06 Q1011 TEMPO 2000 BR BECMG NSC
07:30
L
6 °C 10 km+ 100 ft 320° 320° 2 kt METAR LFSL 300530Z AUTO 32002KT 9999 BKN001 06/06 Q1010 TEMPO 2000 BR BECMG NSC
07:00
V
7 °C 10 km+ - 290° 290° 3 kt METAR LFSL 300500Z AUTO 29003KT 240V310 CAVOK 07/06 Q1010 NOSIG
06:30
V
7 °C 10 km+ - 290° 290° 4 kt METAR LFSL 300430Z AUTO 29004KT CAVOK 07/06 Q1010 NOSIG
06:00
V
7 °C 10 km+ - 300° 300° 4 kt METAR LFSL 300400Z AUTO 30004KT CAVOK 07/07 Q1009 NOSIG
05:30
V
6 °C 10 km+ - Var 000° 0 kt METAR LFSL 300330Z AUTO 00000KT CAVOK 06/06 Q1009
05:00
V
7 °C 10 km+ - Var Var 3 kt METAR LFSL 300300Z AUTO VRB03KT CAVOK 07/06 Q1009
04:30
V
7 °C 10 km+ - 290° 290° 2 kt METAR LFSL 300230Z AUTO 29002KT CAVOK 07/07 Q1008
04:00
V
8 °C 10 km+ - Var Var 2 kt METAR LFSL 300200Z AUTO VRB02KT CAVOK 08/07 Q1008
03:30
V
8 °C 10 km+ - 300° 300° 4 kt METAR LFSL 300130Z AUTO 30004KT CAVOK 08/07 Q1008
03:00
V
8 °C 10 km+ - 300° 300° 3 kt METAR LFSL 300100Z AUTO 30003KT CAVOK 08/07 Q1008
02:30
V
7 °C 10 km+ - 290° 290° 3 kt METAR LFSL 300030Z AUTO 29003KT CAVOK 07/07 Q1008
02:00
V
8 °C 10 km+ - 310° 310° 3 kt METAR LFSL 300000Z AUTO 31003KT CAVOK 08/07 Q1008
01:30
V
9 °C 10 km+ - 290° 290° 4 kt METAR LFSL 292330Z AUTO 29004KT CAVOK 09/08 Q1008
01:00
V
9 °C 10 km+ - 320° 320° 4 kt METAR LFSL 292300Z AUTO 32004KT CAVOK 09/08 Q1008
00:30
V
9 °C 10 km+ - Var Var 3 kt METAR LFSL 292230Z AUTO VRB03KT CAVOK 09/08 Q1008
00:00
V
10 °C 10 km+ - 340° 340° 3 kt METAR LFSL 292200Z AUTO 34003KT CAVOK 10/08 Q1007

29 de septiembre de 2022

Hora Código Tiempo Temp. Visibilidad Cielo nuboso Viento METAR/SPECI
23:30
V
10 °C 10 km+ - 330° 330° 4 kt METAR LFSL 292130Z AUTO 33004KT CAVOK 10/09 Q1007
23:00
V
10 °C 10 km+ - Var Var 2 kt METAR LFSL 292100Z AUTO VRB02KT CAVOK 10/09 Q1007
22:30
V
10 °C 10 km+ - 310° 310° 3 kt METAR LFSL 292030Z AUTO 31003KT CAVOK 10/09 Q1006
22:00
V
11 °C 10 km+ - 310° 310° 4 kt METAR LFSL 292000Z AUTO 31004KT CAVOK 11/09 Q1006 TEMPO 4000 SHRA BKN030TCU
21:30
V
11 °C 10 km+ - 300° 300° 3 kt METAR LFSL 291930Z AUTO 30003KT CAVOK 11/10 Q1005 TEMPO 4000 SHRA BKN030TCU
21:00
V
12 °C 10 km+ - 290° 290° 3 kt METAR LFSL 291900Z AUTO 29003KT 250V310 CAVOK 12/10 Q1005 TEMPO 4000 SHRA BKN030TCU
20:30
V
12 °C 10 km+ 18.000 ft 300° 300° 3 kt METAR LFSL 291830Z AUTO 30003KT 270V330 9999 FEW046 BKN180 OVC200 12/10 Q1005 TEMPO 4000 SHRA BKN030TCU
20:00
V
13 °C 10 km+ - Var Var 2 kt METAR LFSL 291800Z AUTO VRB02KT CAVOK 13/09 Q1004 TEMPO 4000 SHRA BKN030TCU
19:30
V
14 °C 10 km+ - Var Var 1 kt METAR LFSL 291730Z AUTO VRB01KT CAVOK 14/08 Q1004 TEMPO 4000 SHRA BKN030TCU
19:00
V
14 °C 10 km+ - 280° 280° 3 kt METAR LFSL 291700Z AUTO 28003KT CAVOK 14/08 Q1004 TEMPO 4000 SHRA BKN030TCU
18:30
V
15 °C 10 km+ - 300° 300° 4 kt METAR LFSL 291630Z AUTO 30004KT 260V320 9999 //////TCU 15/07 Q1003 TEMPO 4000 SHRA SCT040
18:00
V
15 °C 10 km+ - 320° 320° 8 kt METAR LFSL 291600Z AUTO 32008KT 290V350 9999 //////CB 15/07 Q1003 BECMG SCT040
17:30
V
16 °C 10 km+ - 310° 310° 7 kt METAR LFSL 291530Z AUTO 31007KT 280V350 CAVOK 16/07 Q1003 NOSIG
17:00
V
16 °C 10 km+ 6.400 ft 340° 340° 8 kt METAR LFSL 291500Z AUTO 34008KT 9999 SCT047 BKN064 OVC078 16/07 Q1003 NOSIG
Datos más antiguos

Nosotros y terceros seguimos tu comportamiento en Internet en nuestro sitio web con cookies. Si continúas, asumimos que estás de acuerdo con nuestra política de cookies. Más información